createdAt,value
2023-02-22T00:00:52.788Z,115
2023-02-22T00:02:01.959Z,116
2023-02-22T00:03:11.129Z,82
2023-02-22T00:04:20.302Z,81
2023-02-22T00:05:29.475Z,83
2023-02-22T00:06:38.651Z,96
2023-02-22T00:07:46.824Z,88
2023-02-22T00:08:56.016Z,45
2023-02-22T00:10:05.170Z,81
2023-02-22T00:11:14.362Z,137
2023-02-22T00:12:23.535Z,137
2023-02-22T00:13:32.694Z,137
2023-02-22T00:14:40.897Z,97
2023-02-22T00:15:49.081Z,97
2023-02-22T00:16:57.277Z,74
2023-02-22T00:18:05.469Z,72
2023-02-22T00:19:14.634Z,74
2023-02-22T00:20:23.812Z,75
2023-02-22T00:21:32.987Z,73
2023-02-22T00:22:42.161Z,74
2023-02-22T00:23:51.326Z,74
2023-02-22T00:25:00.504Z,83
2023-02-22T00:26:09.686Z,74
2023-02-22T00:27:18.834Z,74
2023-02-22T00:28:28.021Z,65
2023-02-22T00:29:37.187Z,50
2023-02-22T00:30:46.441Z,57
2023-02-22T00:31:55.532Z,58
2023-02-22T00:33:03.739Z,57
2023-02-22T00:34:12.903Z,57
2023-02-22T00:35:22.071Z,58
2023-02-22T00:36:31.246Z,57
2023-02-22T00:37:40.423Z,87
2023-02-22T00:38:49.603Z,86
2023-02-22T00:39:58.751Z,59
2023-02-22T00:41:06.946Z,58
2023-02-22T00:42:15.148Z,59
2023-02-22T00:43:24.324Z,52
2023-02-22T00:44:33.477Z,70
2023-02-22T00:45:42.644Z,70
2023-02-22T00:46:51.831Z,71
2023-02-22T00:48:01.000Z,70
2023-02-22T00:49:10.193Z,71
2023-02-22T00:50:19.363Z,72
2023-02-22T00:51:28.518Z,66
2023-02-22T00:52:37.699Z,66
2023-02-22T00:53:46.868Z,66
2023-02-22T00:54:56.045Z,66
2023-02-22T00:56:05.207Z,67
2023-02-22T00:57:13.395Z,66
2023-02-22T00:58:22.587Z,66
2023-02-22T00:59:31.742Z,65
2023-02-22T01:00:40.993Z,66
2023-02-22T01:01:50.291Z,66
2023-02-22T01:02:59.268Z,68
2023-02-22T01:04:08.446Z,67
2023-02-22T01:05:16.639Z,65
2023-02-22T01:06:24.849Z,66
2023-02-22T01:07:33.018Z,67
2023-02-22T01:08:41.203Z,67
2023-02-22T01:09:50.377Z,66
2023-02-22T01:10:59.548Z,65
2023-02-22T01:12:08.727Z,67
2023-02-22T01:13:17.895Z,66
2023-02-22T01:14:27.076Z,67
2023-02-22T01:15:36.241Z,65
2023-02-22T01:16:45.411Z,67
2023-02-22T01:17:54.588Z,66
2023-02-22T01:19:03.764Z,66
2023-02-22T01:20:12.940Z,67
2023-02-22T01:21:22.105Z,66
2023-02-22T01:22:31.283Z,66
2023-02-22T01:23:39.469Z,66
2023-02-22T01:24:48.649Z,66
2023-02-22T01:25:57.803Z,66
2023-02-22T01:27:07.006Z,66
2023-02-22T01:28:16.154Z,66
2023-02-22T01:29:25.333Z,66
2023-02-22T01:30:34.502Z,66
2023-02-22T01:31:42.738Z,66
2023-02-22T01:32:50.890Z,66
2023-02-22T01:34:00.074Z,67
2023-02-22T01:35:09.221Z,67
2023-02-22T01:36:18.404Z,67
2023-02-22T01:37:27.575Z,67
2023-02-22T01:38:36.747Z,67
2023-02-22T01:39:45.934Z,67
2023-02-22T01:40:55.087Z,68
2023-02-22T01:42:04.247Z,64
2023-02-22T01:43:13.430Z,65
2023-02-22T01:44:22.611Z,66
2023-02-22T01:45:31.777Z,66
2023-02-22T01:46:40.955Z,66
2023-02-22T01:47:49.138Z,66
2023-02-22T01:48:58.310Z,65
2023-02-22T01:50:07.484Z,66
2023-02-22T01:51:16.655Z,64
2023-02-22T01:52:25.826Z,66
2023-02-22T01:53:35.003Z,66
2023-02-22T01:54:44.192Z,66
2023-02-22T01:55:52.369Z,72
2023-02-22T01:57:00.571Z,72
2023-02-22T01:58:08.842Z,72
2023-02-22T01:59:16.953Z,72
2023-02-22T02:00:25.142Z,72
2023-02-22T02:01:33.317Z,71
2023-02-22T02:02:41.512Z,72
2023-02-22T02:03:49.697Z,72
2023-02-22T02:04:58.901Z,72
2023-02-22T02:06:08.053Z,78
2023-02-22T02:07:17.233Z,77
2023-02-22T02:08:26.395Z,77
2023-02-22T02:09:35.584Z,77
2023-02-22T02:10:44.743Z,78
2023-02-22T02:11:53.927Z,79
2023-02-22T02:13:03.087Z,77
2023-02-22T02:14:12.260Z,103
2023-02-22T02:15:21.432Z,108
2023-02-22T02:16:30.597Z,139
2023-02-22T02:17:39.784Z,139
2023-02-22T02:18:47.969Z,126
2023-02-22T02:19:57.141Z,114
2023-02-22T02:21:06.300Z,117
2023-02-22T02:22:15.484Z,114
2023-02-22T02:23:24.658Z,117
2023-02-22T02:24:33.845Z,115
2023-02-22T02:25:43.011Z,114
2023-02-22T02:26:51.202Z,116
2023-02-22T02:27:59.387Z,115
2023-02-22T02:29:07.589Z,103
2023-02-22T02:30:15.773Z,103
2023-02-22T02:31:25.067Z,77
2023-02-22T02:32:34.127Z,104
2023-02-22T02:33:43.316Z,97
2023-02-22T02:34:52.463Z,97
2023-02-22T02:36:01.637Z,97
2023-02-22T02:37:10.801Z,106
2023-02-22T02:38:20.110Z,106
2023-02-22T02:39:29.159Z,118
2023-02-22T02:40:38.316Z,126
2023-02-22T02:41:47.585Z,122
2023-02-22T02:42:56.670Z,126
2023-02-22T02:44:05.842Z,114
2023-02-22T02:45:14.050Z,132
2023-02-22T02:46:23.227Z,104
2023-02-22T02:47:32.375Z,108
2023-02-22T02:48:41.559Z,82
2023-02-22T02:49:50.810Z,91
2023-02-22T02:50:59.889Z,105
2023-02-22T02:52:09.068Z,119
2023-02-22T02:53:17.291Z,140
2023-02-22T02:54:25.461Z,132
2023-02-22T02:55:34.629Z,120
2023-02-22T02:56:43.806Z,136
2023-02-22T02:57:52.005Z,153
2023-02-22T02:59:00.179Z,118
2023-02-22T03:00:09.360Z,106
2023-02-22T03:01:18.520Z,158
2023-02-22T03:02:27.706Z,117
2023-02-22T03:03:36.880Z,148
2023-02-22T03:04:46.044Z,125
2023-02-22T03:05:55.211Z,118
2023-02-22T03:07:04.386Z,137
2023-02-22T03:09:22.734Z,139
2023-02-22T03:10:31.903Z,126
2023-02-22T03:11:41.106Z,114
2023-02-22T03:12:50.247Z,112
2023-02-22T03:13:58.435Z,103
2023-02-22T03:15:07.622Z,115
2023-02-22T03:16:16.782Z,127
2023-02-22T03:17:25.961Z,113
2023-02-22T03:18:35.133Z,113
2023-02-22T03:19:44.299Z,122
2023-02-22T03:20:53.480Z,119
2023-02-22T03:22:02.663Z,140
2023-02-22T03:23:10.866Z,110
2023-02-22T03:24:19.025Z,91
2023-02-22T03:25:28.198Z,112
2023-02-22T03:26:37.377Z,153
2023-02-22T03:27:46.556Z,136
2023-02-22T03:28:55.726Z,124
2023-02-22T03:30:04.983Z,133
2023-02-22T03:31:14.074Z,127
2023-02-22T03:32:23.232Z,134
2023-02-22T03:33:32.416Z,140
2023-02-22T03:34:41.599Z,117
2023-02-22T03:35:50.752Z,79
2023-02-22T03:36:59.943Z,68
2023-02-22T03:38:09.101Z,56
2023-02-22T03:39:17.298Z,57
2023-02-22T03:40:26.460Z,92
2023-02-22T03:41:35.644Z,169
2023-02-22T03:42:44.813Z,143
2023-02-22T03:43:53.005Z,162
2023-02-22T03:45:02.176Z,141
2023-02-22T03:46:11.341Z,129
2023-02-22T03:47:19.552Z,134
2023-02-22T03:48:27.730Z,124
2023-02-22T03:49:36.902Z,159
2023-02-22T03:50:46.091Z,116
2023-02-22T03:51:55.259Z,110
2023-02-22T03:53:04.452Z,111
2023-02-22T03:54:13.600Z,105
2023-02-22T03:55:22.767Z,114
2023-02-22T03:56:31.945Z,115
2023-02-22T03:57:41.105Z,106
2023-02-22T03:58:50.289Z,112
2023-02-22T03:59:59.461Z,97
2023-02-22T04:01:08.621Z,108
2023-02-22T04:02:17.793Z,90
2023-02-22T04:03:25.990Z,97
2023-02-22T04:04:35.169Z,110
2023-02-22T04:05:44.401Z,147
2023-02-22T04:06:53.552Z,123
2023-02-22T04:08:02.679Z,149
2023-02-22T04:09:11.859Z,100
2023-02-22T04:10:21.032Z,101
2023-02-22T04:11:29.217Z,115
2023-02-22T04:12:37.413Z,116
2023-02-22T04:13:45.595Z,120
2023-02-22T04:14:53.788Z,160
2023-02-22T04:16:02.967Z,130
2023-02-22T04:17:12.130Z,110
2023-02-22T04:18:21.308Z,110
2023-02-22T04:19:30.488Z,75
2023-02-22T04:20:39.653Z,81
2023-02-22T04:21:48.834Z,83
2023-02-22T04:22:58.004Z,69
2023-02-22T04:24:07.172Z,125
2023-02-22T04:25:16.342Z,146
2023-02-22T04:26:25.515Z,120
2023-02-22T04:27:34.687Z,132
2023-02-22T04:28:43.868Z,126
2023-02-22T04:29:52.080Z,135
2023-02-22T04:31:01.223Z,129
2023-02-22T04:32:10.398Z,164
2023-02-22T04:33:19.563Z,129
2023-02-22T04:34:28.739Z,144
2023-02-22T04:35:37.910Z,136
2023-02-22T04:36:47.097Z,152
2023-02-22T04:37:55.276Z,157
2023-02-22T04:39:03.467Z,171
2023-02-22T04:40:11.676Z,148
2023-02-22T04:41:19.848Z,140
2023-02-22T04:42:29.033Z,133
2023-02-22T04:43:38.208Z,130
2023-02-22T04:44:47.368Z,113
2023-02-22T04:45:56.560Z,105
2023-02-22T04:47:05.719Z,86
2023-02-22T04:48:14.892Z,91
2023-02-22T04:49:24.057Z,68
2023-02-22T04:50:33.242Z,68
2023-02-22T04:51:42.410Z,79
2023-02-22T04:52:51.573Z,78
2023-02-22T04:54:00.754Z,84
2023-02-22T04:55:09.924Z,93
2023-02-22T04:56:18.124Z,93
2023-02-22T04:57:27.293Z,85
2023-02-22T04:58:36.485Z,104
2023-02-22T04:59:45.627Z,59
2023-02-22T05:00:54.807Z,81
2023-02-22T05:02:03.969Z,81
2023-02-22T05:03:13.154Z,81
2023-02-22T05:04:21.358Z,92
2023-02-22T05:05:29.528Z,93
2023-02-22T05:06:38.704Z,65
2023-02-22T05:07:46.896Z,72
2023-02-22T05:08:55.089Z,83
2023-02-22T05:10:04.267Z,54
2023-02-22T05:11:13.427Z,59
2023-02-22T05:12:22.601Z,62
2023-02-22T05:13:31.783Z,60
2023-02-22T05:14:40.943Z,61
2023-02-22T05:15:50.136Z,60
2023-02-22T05:16:59.325Z,62
2023-02-22T05:18:08.481Z,62
2023-02-22T05:19:17.635Z,61
2023-02-22T05:20:26.802Z,56
2023-02-22T05:21:35.979Z,58
2023-02-22T05:22:45.160Z,58
2023-02-22T05:23:53.370Z,70
2023-02-22T05:25:02.530Z,76
2023-02-22T05:26:11.717Z,74
2023-02-22T05:27:20.925Z,54
2023-02-22T05:28:30.033Z,81
2023-02-22T05:29:39.234Z,54
2023-02-22T05:30:48.383Z,60
2023-02-22T05:31:56.566Z,64
2023-02-22T05:33:04.770Z,79
2023-02-22T05:34:13.945Z,79
2023-02-22T05:35:22.126Z,65
2023-02-22T05:36:30.309Z,63
2023-02-22T05:37:39.488Z,64
2023-02-22T05:38:48.668Z,92
2023-02-22T05:39:57.824Z,85
2023-02-22T05:41:06.997Z,63
2023-02-22T05:42:16.175Z,79
2023-02-22T05:43:25.359Z,67
2023-02-22T05:44:34.518Z,72
2023-02-22T05:45:43.699Z,62
2023-02-22T05:46:52.866Z,68
2023-02-22T05:48:02.040Z,74
2023-02-22T05:49:11.211Z,62
2023-02-22T05:50:20.379Z,77
2023-02-22T05:51:28.573Z,92
2023-02-22T05:52:37.746Z,73
2023-02-22T05:53:46.931Z,82
2023-02-22T05:54:56.089Z,103
2023-02-22T05:56:05.250Z,136
2023-02-22T05:57:14.504Z,131
2023-02-22T05:58:23.611Z,118
2023-02-22T05:59:31.791Z,176
2023-02-22T06:00:39.985Z,157
2023-02-22T06:01:49.151Z,160
2023-02-22T06:02:57.353Z,141
2023-02-22T06:04:05.542Z,170
2023-02-22T06:05:14.719Z,141
2023-02-22T06:06:23.892Z,140
2023-02-22T06:07:33.067Z,148
2023-02-22T06:08:42.235Z,144
2023-02-22T06:09:51.420Z,167
2023-02-22T06:11:00.571Z,159
2023-02-22T06:12:09.751Z,122
2023-02-22T06:13:18.924Z,132
2023-02-22T06:14:28.091Z,148
2023-02-22T06:15:37.276Z,127
2023-02-22T06:16:46.448Z,119
2023-02-22T06:17:55.624Z,104
2023-02-22T06:19:03.806Z,103
2023-02-22T06:20:12.993Z,139
2023-02-22T06:21:22.159Z,123
2023-02-22T06:22:31.322Z,98
2023-02-22T06:23:40.486Z,76
2023-02-22T06:24:49.670Z,80
2023-02-22T06:25:58.846Z,85
2023-02-22T06:27:07.998Z,62
2023-02-22T06:28:17.184Z,76
2023-02-22T06:29:26.354Z,66
2023-02-22T06:30:35.579Z,47
2023-02-22T06:31:44.700Z,88
2023-02-22T06:32:53.870Z,61
2023-02-22T06:34:02.063Z,89
2023-02-22T06:35:11.234Z,89
2023-02-22T06:36:20.404Z,98
2023-02-22T06:37:29.577Z,87
2023-02-22T06:38:38.743Z,82
2023-02-22T06:39:47.928Z,77
2023-02-22T06:40:57.120Z,43
2023-02-22T06:42:06.465Z,81
2023-02-22T06:43:15.440Z,85
2023-02-22T06:44:24.610Z,100
2023-02-22T06:45:33.782Z,117
2023-02-22T06:46:42.957Z,126
2023-02-22T06:47:52.130Z,127
2023-02-22T06:49:00.322Z,121
2023-02-22T06:50:09.498Z,114
2023-02-22T06:51:18.658Z,105
2023-02-22T06:52:27.842Z,121
2023-02-22T06:53:37.007Z,102
2023-02-22T06:54:46.192Z,95
2023-02-22T06:57:04.579Z,63
2023-02-22T06:58:13.712Z,97
2023-02-22T07:00:32.036Z,131
2023-02-22T07:01:41.217Z,103
2023-02-22T07:02:50.405Z,97
2023-02-22T07:03:59.559Z,83
2023-02-22T07:05:07.782Z,108
2023-02-22T07:06:16.922Z,97
2023-02-22T07:07:26.089Z,30
2023-02-22T07:08:35.294Z,82
2023-02-22T07:09:44.443Z,76
2023-02-22T07:10:53.614Z,111
2023-02-22T07:12:02.785Z,116
2023-02-22T07:13:11.959Z,90
2023-02-22T07:14:21.115Z,69
2023-02-22T07:15:30.311Z,85
2023-02-22T07:16:39.479Z,72
2023-02-22T07:17:48.641Z,131
2023-02-22T07:18:57.825Z,71
2023-02-22T07:20:06.018Z,103
2023-02-22T07:21:15.195Z,98
2023-02-22T07:23:33.517Z,129
2023-02-22T07:24:42.702Z,145
2023-02-22T07:25:51.867Z,119
2023-02-22T07:27:01.045Z,119
2023-02-22T07:28:10.221Z,108
2023-02-22T07:29:19.389Z,111
2023-02-22T07:30:28.568Z,125
2023-02-22T07:31:37.743Z,128
2023-02-22T07:32:46.911Z,122
2023-02-22T07:33:56.086Z,113
2023-02-22T07:35:04.281Z,99
2023-02-22T07:36:13.460Z,98
2023-02-22T07:37:22.680Z,76
2023-02-22T07:38:31.801Z,63
2023-02-22T07:39:40.967Z,55
2023-02-22T07:40:50.149Z,71
2023-02-22T07:41:59.303Z,135
2023-02-22T07:44:17.647Z,129
2023-02-22T07:45:26.834Z,112
2023-02-22T07:47:45.174Z,66
2023-02-22T07:48:54.406Z,87
2023-02-22T07:50:02.527Z,86
2023-02-22T07:51:11.703Z,90
2023-02-22T07:52:20.915Z,85
2023-02-22T07:53:30.068Z,76
2023-02-22T07:54:39.212Z,72
2023-02-22T07:55:48.395Z,57
2023-02-22T07:56:57.629Z,90
2023-02-22T07:58:06.742Z,121
2023-02-22T07:59:15.913Z,112
2023-02-22T08:00:25.105Z,95
2023-02-22T08:01:34.257Z,113
2023-02-22T08:02:43.425Z,117
2023-02-22T08:03:52.597Z,101
2023-02-22T08:05:00.928Z,121
2023-02-22T08:06:10.025Z,117
2023-02-22T08:07:19.150Z,76
2023-02-22T08:08:28.303Z,128
2023-02-22T08:09:37.629Z,133
2023-02-22T08:10:46.646Z,116
2023-02-22T08:11:55.865Z,98
2023-02-22T08:13:05.002Z,108
2023-02-22T08:15:23.341Z,82
2023-02-22T08:16:32.597Z,120
2023-02-22T08:17:41.683Z,92
2023-02-22T08:18:50.868Z,108
2023-02-22T08:19:59.051Z,124
2023-02-22T08:21:08.229Z,109
2023-02-22T08:22:17.395Z,114
2023-02-22T08:23:26.557Z,93
2023-02-22T08:24:35.758Z,104
2023-02-22T08:25:44.916Z,122
2023-02-22T08:26:54.091Z,116
2023-02-22T08:28:03.257Z,119
2023-02-22T08:29:12.428Z,116
2023-02-22T08:30:21.599Z,113
2023-02-22T08:31:30.765Z,132
2023-02-22T08:32:39.945Z,119
2023-02-22T08:33:49.122Z,116
2023-02-22T08:34:57.311Z,112
2023-02-22T08:36:06.484Z,119
2023-02-22T08:37:15.671Z,108
2023-02-22T08:38:24.910Z,145
2023-02-22T08:39:33.997Z,136
2023-02-22T08:40:43.174Z,147
2023-02-22T08:41:52.334Z,123
2023-02-22T08:43:01.523Z,139
2023-02-22T08:44:10.690Z,146
2023-02-22T08:45:18.885Z,117
2023-02-22T08:46:27.077Z,122
2023-02-22T08:47:36.239Z,123
2023-02-22T08:48:44.450Z,90
2023-02-22T08:49:52.632Z,89
2023-02-22T08:51:01.800Z,90
2023-02-22T08:52:10.976Z,123
2023-02-22T08:53:20.145Z,132
2023-02-22T08:54:29.331Z,128
2023-02-22T08:55:38.494Z,115
2023-02-22T08:56:47.657Z,83
2023-02-22T08:57:56.828Z,88
2023-02-22T08:59:06.069Z,73
2023-02-22T09:00:15.176Z,116
2023-02-22T09:01:24.356Z,91
2023-02-22T09:02:33.534Z,89
2023-02-22T09:03:42.699Z,107
2023-02-22T09:04:50.884Z,128
2023-02-22T09:06:00.096Z,120
2023-02-22T09:07:09.224Z,97
2023-02-22T09:08:18.434Z,98
2023-02-22T09:09:27.571Z,92
2023-02-22T09:10:36.859Z,108
2023-02-22T09:11:45.947Z,119
2023-02-22T09:12:54.193Z,104
2023-02-22T09:14:02.309Z,145
2023-02-22T09:15:11.461Z,92
2023-02-22T09:16:20.794Z,124
2023-02-22T09:17:29.943Z,136
2023-02-22T09:18:39.002Z,135
2023-02-22T09:19:47.247Z,127
2023-02-22T09:20:55.376Z,140
2023-02-22T09:22:04.548Z,106
2023-02-22T09:23:13.721Z,120
2023-02-22T09:24:22.902Z,101
2023-02-22T09:25:32.077Z,69
2023-02-22T09:26:41.233Z,85
2023-02-22T09:27:50.409Z,78
2023-02-22T09:28:59.590Z,92
2023-02-22T09:30:08.747Z,70
2023-02-22T09:31:17.932Z,77
2023-02-22T09:32:27.102Z,66
2023-02-22T09:33:36.270Z,67
2023-02-22T09:34:45.618Z,72
2023-02-22T09:35:53.716Z,113
2023-02-22T09:37:02.846Z,124
2023-02-22T09:38:11.985Z,105
2023-02-22T09:39:21.294Z,115
2023-02-22T09:40:30.324Z,115
2023-02-22T09:41:39.509Z,116
2023-02-22T09:42:48.664Z,119
2023-02-22T09:43:56.866Z,126
2023-02-22T09:45:05.055Z,111
2023-02-22T09:46:13.235Z,108
2023-02-22T09:47:21.432Z,112
2023-02-22T09:48:30.663Z,102
2023-02-22T09:49:39.816Z,105
2023-02-22T09:50:48.978Z,92
2023-02-22T09:51:58.111Z,60
2023-02-22T09:53:07.295Z,111
2023-02-22T09:54:16.461Z,86
2023-02-22T09:55:25.633Z,135
2023-02-22T09:56:34.812Z,148
2023-02-22T09:57:43.990Z,77
2023-02-22T09:58:53.168Z,154
2023-02-22T10:00:02.349Z,117
2023-02-22T10:01:11.502Z,114
2023-02-22T10:02:19.703Z,124
2023-02-22T10:03:28.868Z,122
2023-02-22T10:04:38.057Z,98
2023-02-22T10:05:47.204Z,110
2023-02-22T10:06:56.390Z,117
2023-02-22T10:08:05.558Z,120
2023-02-22T10:09:14.721Z,122
2023-02-22T10:10:22.924Z,101
2023-02-22T10:11:31.127Z,109
2023-02-22T10:12:39.303Z,111
2023-02-22T10:13:47.494Z,97
2023-02-22T10:14:56.795Z,126
2023-02-22T10:16:05.979Z,102
2023-02-22T10:17:15.036Z,130
2023-02-22T10:18:24.193Z,108
2023-02-22T10:19:33.363Z,67
2023-02-22T10:20:42.539Z,102
2023-02-22T10:21:51.702Z,120
2023-02-22T10:23:00.882Z,111
2023-02-22T10:24:10.070Z,125
2023-02-22T10:25:19.229Z,125
2023-02-22T10:26:28.416Z,137
2023-02-22T10:27:37.570Z,136
2023-02-22T10:28:45.756Z,138
2023-02-22T10:29:54.983Z,139
2023-02-22T10:31:04.107Z,119
2023-02-22T10:32:13.281Z,121
2023-02-22T10:33:22.456Z,106
2023-02-22T10:34:31.622Z,65
2023-02-22T10:35:40.806Z,97
2023-02-22T10:36:48.991Z,98
2023-02-22T10:37:57.168Z,119
2023-02-22T10:39:06.346Z,108
2023-02-22T10:40:15.504Z,75
2023-02-22T10:41:24.715Z,62
2023-02-22T10:42:33.855Z,63
2023-02-22T10:43:43.026Z,98
2023-02-22T10:44:52.191Z,117
2023-02-22T10:46:01.375Z,122
2023-02-22T10:47:10.549Z,134
2023-02-22T10:48:19.722Z,67
2023-02-22T10:49:28.903Z,61
2023-02-22T10:50:38.070Z,32
2023-02-22T10:51:47.241Z,90
2023-02-22T10:52:55.425Z,72
2023-02-22T10:54:04.593Z,96
2023-02-22T10:55:13.776Z,57
2023-02-22T10:56:23.023Z,60
2023-02-22T10:57:32.165Z,45
2023-02-22T10:58:41.339Z,91
2023-02-22T10:59:50.516Z,89
2023-02-22T11:00:58.718Z,81
2023-02-22T11:02:07.874Z,88
2023-02-22T11:03:16.074Z,95
2023-02-22T11:04:24.269Z,118
2023-02-22T11:05:32.457Z,109
2023-02-22T11:06:40.642Z,136
2023-02-22T11:07:48.837Z,75
2023-02-22T11:08:58.008Z,100
2023-02-22T11:10:07.172Z,102
2023-02-22T11:11:16.350Z,102
2023-02-22T11:12:25.551Z,110
2023-02-22T11:13:34.712Z,122
2023-02-22T11:14:43.949Z,98
2023-02-22T11:15:53.101Z,127
2023-02-22T11:17:02.211Z,112
2023-02-22T11:18:11.496Z,142
2023-02-22T11:19:20.603Z,135
2023-02-22T11:20:29.723Z,76
2023-02-22T11:21:38.938Z,82
2023-02-22T11:22:47.110Z,66
2023-02-22T11:23:56.259Z,77
2023-02-22T11:25:05.517Z,77
2023-02-22T11:26:13.663Z,97
2023-02-22T11:28:31.999Z,148
2023-02-22T11:29:41.160Z,138
2023-02-22T11:30:50.316Z,129
2023-02-22T11:31:58.502Z,124
2023-02-22T11:33:06.692Z,105
2023-02-22T11:34:16.005Z,128
2023-02-22T11:35:24.194Z,137
2023-02-22T11:36:32.302Z,149
2023-02-22T11:37:41.578Z,140
2023-02-22T11:38:50.585Z,155
2023-02-22T11:39:59.814Z,150
2023-02-22T11:41:08.921Z,112
2023-02-22T11:42:18.130Z,162
2023-02-22T11:43:27.281Z,155
2023-02-22T11:44:36.468Z,134
2023-02-22T11:45:45.621Z,134
2023-02-22T11:46:54.801Z,112
2023-02-22T11:48:04.018Z,133
2023-02-22T11:49:13.201Z,96
2023-02-22T11:50:22.370Z,89
2023-02-22T11:51:30.517Z,172
2023-02-22T11:52:39.664Z,97
2023-02-22T11:53:48.910Z,99
2023-02-22T11:54:58.011Z,117
2023-02-22T11:56:07.183Z,97
2023-02-22T11:57:16.352Z,97
2023-02-22T11:58:25.629Z,94
2023-02-22T11:59:33.717Z,95
2023-02-22T12:00:41.942Z,98
2023-02-22T12:01:51.089Z,93
2023-02-22T12:03:00.293Z,69
2023-02-22T12:04:09.434Z,120
2023-02-22T12:05:18.693Z,82
2023-02-22T12:06:27.931Z,82
2023-02-22T12:07:37.127Z,96
2023-02-22T12:08:46.173Z,101
2023-02-22T12:09:55.462Z,106
2023-02-22T12:11:04.494Z,112
2023-02-22T12:12:13.642Z,109
2023-02-22T12:13:22.919Z,118
2023-02-22T12:14:32.003Z,88
2023-02-22T12:15:40.237Z,78
2023-02-22T12:16:49.351Z,91
2023-02-22T12:17:58.544Z,73
2023-02-22T12:19:07.701Z,76
2023-02-22T12:20:16.854Z,127
2023-02-22T12:21:26.031Z,63
2023-02-22T12:23:44.377Z,99
2023-02-22T12:24:52.574Z,40
2023-02-22T12:26:00.765Z,67
2023-02-22T12:27:09.067Z,80
2023-02-22T12:28:17.144Z,103
2023-02-22T12:29:26.327Z,107
2023-02-22T12:30:35.492Z,116
2023-02-22T12:31:43.680Z,102
2023-02-22T12:32:51.912Z,101
2023-02-22T12:34:01.049Z,73
2023-02-22T12:35:10.227Z,83
2023-02-22T12:36:19.393Z,75
2023-02-22T12:37:28.565Z,70
2023-02-22T12:38:37.844Z,27
2023-02-22T12:39:46.907Z,80
2023-02-22T12:40:56.253Z,69
2023-02-22T12:42:05.249Z,88
2023-02-22T12:43:14.436Z,113
2023-02-22T12:44:23.692Z,105
2023-02-22T12:45:32.902Z,107
2023-02-22T12:46:41.947Z,90
2023-02-22T12:47:50.136Z,112
2023-02-22T12:48:59.312Z,70
2023-02-22T12:50:08.525Z,93
2023-02-22T12:51:17.647Z,81
2023-02-22T12:52:26.830Z,96
2023-02-22T12:53:35.998Z,102
2023-02-22T12:54:45.163Z,88
2023-02-22T12:55:53.425Z,90
2023-02-22T12:57:01.552Z,94
2023-02-22T12:58:09.793Z,95
2023-02-22T12:59:17.964Z,95
2023-02-22T13:01:36.323Z,132
2023-02-22T13:03:54.659Z,105
2023-02-22T13:05:03.793Z,107
2023-02-22T13:06:12.983Z,91
2023-02-22T13:07:22.144Z,82
2023-02-22T13:08:31.299Z,56
2023-02-22T13:09:40.473Z,87
2023-02-22T13:10:49.711Z,113
2023-02-22T13:11:58.912Z,81
2023-02-22T13:13:07.016Z,83
2023-02-22T13:14:15.210Z,88
2023-02-22T13:15:24.402Z,88
2023-02-22T13:16:33.548Z,84
2023-02-22T13:17:42.727Z,112
2023-02-22T13:18:51.892Z,112
2023-02-22T13:20:01.111Z,95
2023-02-22T13:21:10.250Z,106
2023-02-22T13:22:19.501Z,128
2023-02-22T13:23:28.671Z,85
2023-02-22T13:24:37.756Z,112
2023-02-22T13:25:45.985Z,74
2023-02-22T13:26:54.151Z,74
2023-02-22T13:28:03.303Z,67
2023-02-22T13:29:12.512Z,76
2023-02-22T13:30:21.672Z,71
2023-02-22T13:31:30.856Z,67
2023-02-22T13:32:40.009Z,98
2023-02-22T13:33:49.184Z,75
2023-02-22T13:34:58.389Z,61
2023-02-22T13:36:07.529Z,60
2023-02-22T13:37:16.689Z,73
2023-02-22T13:38:25.864Z,78
2023-02-22T13:39:35.044Z,68
2023-02-22T13:40:44.292Z,68
2023-02-22T13:41:52.406Z,68
2023-02-22T13:43:01.576Z,88
2023-02-22T13:44:10.746Z,72
2023-02-22T13:45:19.963Z,85
2023-02-22T13:46:29.088Z,80
2023-02-22T13:47:38.254Z,52
2023-02-22T13:48:47.428Z,84
2023-02-22T13:49:55.626Z,70
2023-02-22T13:51:03.840Z,82
2023-02-22T13:52:13.018Z,81
2023-02-22T13:53:22.209Z,81
2023-02-22T13:54:30.346Z,82
2023-02-22T13:55:38.531Z,81
2023-02-22T13:56:47.704Z,96
2023-02-22T13:57:56.892Z,67
2023-02-22T13:59:06.097Z,72
2023-02-22T14:00:15.228Z,67
2023-02-22T14:01:24.404Z,88
2023-02-22T14:02:33.809Z,79
2023-02-22T14:03:42.851Z,117
2023-02-22T14:04:52.015Z,123
2023-02-22T14:06:01.080Z,122
2023-02-22T14:07:10.268Z,112
2023-02-22T14:08:19.540Z,112
2023-02-22T14:09:28.604Z,77
2023-02-22T14:10:36.792Z,87
2023-02-22T14:11:45.967Z,82
2023-02-22T14:12:55.142Z,55
2023-02-22T14:14:04.306Z,88
2023-02-22T14:15:13.472Z,108
2023-02-22T14:16:22.769Z,113
2023-02-22T14:17:31.830Z,128
2023-02-22T14:18:40.073Z,123
2023-02-22T14:19:48.215Z,124
2023-02-22T14:20:56.396Z,125
2023-02-22T14:22:04.594Z,156
2023-02-22T14:23:13.754Z,97
2023-02-22T14:24:23.048Z,86
2023-02-22T14:25:32.111Z,99
2023-02-22T14:26:41.276Z,123
2023-02-22T14:27:50.494Z,135
2023-02-22T14:28:59.654Z,124
2023-02-22T14:30:08.791Z,136
2023-02-22T14:31:17.986Z,141
2023-02-22T14:32:27.310Z,134
2023-02-22T14:33:36.307Z,119
2023-02-22T14:34:45.487Z,126
2023-02-22T14:35:54.678Z,126
2023-02-22T14:37:02.891Z,127
2023-02-22T14:38:12.098Z,132
2023-02-22T14:39:21.202Z,140
2023-02-22T14:40:30.380Z,115
2023-02-22T14:41:39.566Z,116
2023-02-22T14:42:48.713Z,115
2023-02-22T14:43:57.940Z,99
2023-02-22T14:45:06.106Z,119
2023-02-22T14:46:14.256Z,115
2023-02-22T14:47:23.437Z,117
2023-02-22T14:48:31.640Z,118
2023-02-22T14:49:39.820Z,97
2023-02-22T14:50:49.035Z,97
2023-02-22T14:51:58.163Z,97
2023-02-22T14:53:07.332Z,119
2023-02-22T14:54:16.513Z,120
2023-02-22T14:55:25.678Z,113
2023-02-22T14:56:34.868Z,140
2023-02-22T14:57:44.028Z,120
2023-02-22T14:58:53.209Z,122
2023-02-22T15:00:02.370Z,133
2023-02-22T15:01:11.532Z,118
2023-02-22T15:02:20.749Z,116
2023-02-22T15:03:29.884Z,113
2023-02-22T15:04:38.193Z,123
2023-02-22T15:05:47.259Z,122
2023-02-22T15:06:56.428Z,122
2023-02-22T15:08:05.597Z,105
2023-02-22T15:09:14.777Z,121
2023-02-22T15:10:24.112Z,138
2023-02-22T15:11:33.106Z,139
2023-02-22T15:13:50.484Z,95
2023-02-22T15:14:58.668Z,94
2023-02-22T15:16:06.850Z,94
2023-02-22T15:17:15.085Z,72
2023-02-22T15:19:32.644Z,68
2023-02-22T15:20:41.592Z,68
2023-02-22T15:21:50.799Z,66
2023-02-22T15:22:59.986Z,67
2023-02-22T15:24:09.219Z,67
2023-02-22T15:25:18.375Z,68
2023-02-22T15:26:27.455Z,68
2023-02-22T15:27:36.630Z,68
2023-02-22T15:28:45.985Z,68
2023-02-22T15:29:55.058Z,67
2023-02-22T15:31:04.130Z,67
2023-02-22T15:32:13.359Z,68
2023-02-22T15:33:21.554Z,67
2023-02-22T15:34:30.716Z,67
2023-02-22T15:35:39.848Z,67
2023-02-22T15:36:49.038Z,67
2023-02-22T15:37:58.199Z,68
2023-02-22T15:39:07.356Z,67
2023-02-22T15:40:16.539Z,67
2023-02-22T15:41:25.734Z,67
2023-02-22T15:42:33.952Z,67
2023-02-22T15:43:42.103Z,67
2023-02-22T15:44:50.323Z,67
2023-02-22T15:45:58.483Z,67
2023-02-22T15:47:07.645Z,67
2023-02-22T15:48:16.822Z,67
2023-02-22T15:49:26.000Z,68
2023-02-22T15:50:35.228Z,67
2023-02-22T15:51:44.367Z,69
2023-02-22T15:52:53.524Z,68
2023-02-22T15:54:02.683Z,68
2023-02-22T15:55:11.855Z,68
2023-02-22T15:56:21.043Z,67
2023-02-22T15:57:30.311Z,67
2023-02-22T15:58:39.394Z,67
2023-02-22T15:59:48.547Z,67
2023-02-22T16:00:56.734Z,67
2023-02-22T16:02:05.892Z,67
2023-02-22T16:03:15.083Z,67
2023-02-22T16:04:24.243Z,67
2023-02-22T16:05:33.432Z,67
2023-02-22T16:06:42.666Z,67
2023-02-22T16:07:51.785Z,68
2023-02-22T16:08:59.971Z,67
2023-02-22T16:10:08.195Z,68
2023-02-22T16:11:17.448Z,67
2023-02-22T16:12:26.504Z,67
2023-02-22T16:13:35.748Z,68
2023-02-22T16:14:43.872Z,68
2023-02-22T16:15:52.058Z,68
2023-02-22T16:17:01.317Z,67
2023-02-22T16:18:10.414Z,68
2023-02-22T16:19:19.579Z,67
2023-02-22T16:20:28.745Z,67
2023-02-22T16:21:37.990Z,68
2023-02-22T16:22:47.086Z,68